Time;durP1;ratioP1;P1;durP2;ratioP2;P2;SDS_P1;SDS_P2;PMS_P1;PMS_P2;Temp;Humidity;BMP_temperature;BMP_pressure;BME280_temperature;BME280_humidity;BME280_pressure;Samples;Min_cycle;Max_cycle;Signal;HPM_P1;HPM_P2
2023/10/28 00:00:51;;;;;;;9.47;5.53;;;;;;;;;;5057284;27;94026;-53
2023/10/28 00:03:20;;;;;;;7.13;5.27;;;;;;;;;;5051413;27;94540;-53
2023/10/28 00:05:49;;;;;;;9.60;6.70;;;;;;;;;;5033316;27;93058;-53
2023/10/28 00:08:17;;;;;;;7.70;5.93;;;;;;;;;;5052463;27;92541;-52
2023/10/28 00:10:46;;;;;;;12.50;6.03;;;;;;;;;;5051893;27;93062;-52
2023/10/28 00:13:16;;;;;;;11.17;5.93;;;;;;;;;;5057281;27;92026;-51
2023/10/28 00:15:44;;;;;;;7.77;5.20;;;;;;;;;;5054942;27;92103;-52
2023/10/28 00:18:14;;;;;;;9.67;5.90;;;;;;;;;;5056260;27;91342;-54
2023/10/28 00:20:44;;;;;;;7.47;5.27;;;;;;;;;;5057351;27;94087;-52
2023/10/28 00:23:13;;;;;;;6.10;4.53;;;;;;;;;;5055489;27;93839;-51
2023/10/28 00:25:42;;;;;;;6.60;5.13;;;;;;;;;;5055569;27;92976;-53
2023/10/28 00:28:10;;;;;;;9.00;5.83;;;;;;;;;;5054384;27;92114;-52
2023/10/28 00:30:41;;;;;;;8.43;5.37;;;;;;;;;;5044356;27;94209;-53
2023/10/28 00:33:10;;;;;;;9.20;5.40;;;;;;;;;;5037352;27;93808;-54
2023/10/28 00:35:42;;;;;;;10.00;6.20;;;;;;;;;;5038214;27;92199;-53
2023/10/28 00:38:10;;;;;;;7.40;5.57;;;;;;;;;;5045619;27;92059;-52
2023/10/28 00:40:38;;;;;;;10.83;5.67;;;;;;;;;;5043651;27;94173;-52
2023/10/28 00:43:10;;;;;;;10.20;5.43;;;;;;;;;;5038733;27;93839;-52
2023/10/28 00:45:40;;;;;;;9.07;6.17;;;;;;;;;;5056209;27;91986;-52
2023/10/28 00:48:09;;;;;;;5.47;4.20;;;;;;;;;;5057167;27;92127;-53
2023/10/28 00:50:37;;;;;;;9.00;5.10;;;;;;;;;;5044225;27;95196;-52
2023/10/28 00:53:05;;;;;;;10.00;5.30;;;;;;;;;;5057927;27;93675;-52
2023/10/28 00:55:34;;;;;;;6.67;5.37;;;;;;;;;;5051084;27;91944;-52
2023/10/28 00:58:02;;;;;;;9.07;5.50;;;;;;;;;;5037527;28;92064;-52
2023/10/28 01:00:31;;;;;;;6.23;4.57;;;;;;;;;;5039305;27;94168;-51
2023/10/28 01:03:00;;;;;;;6.53;4.67;;;;;;;;;;5040910;28;93913;-52
2023/10/28 01:05:30;;;;;;;8.83;4.83;;;;;;;;;;5041514;27;92056;-51
2023/10/28 01:07:59;;;;;;;8.03;4.93;;;;;;;;;;5060526;27;91340;-51
2023/10/28 01:10:28;;;;;;;6.50;4.70;;;;;;;;;;5060993;27;93236;-53
2023/10/28 01:12:57;;;;;;;6.97;4.47;;;;;;;;;;5045157;27;91926;-53
2023/10/28 01:15:26;;;;;;;6.70;4.33;;;;;;;;;;5061079;27;92792;-51
2023/10/28 01:17:54;;;;;;;6.77;4.30;;;;;;;;;;5061218;27;92015;-51
2023/10/28 01:20:24;;;;;;;6.13;4.10;;;;;;;;;;5061111;27;94044;-53
2023/10/28 01:22:54;;;;;;;6.57;4.27;;;;;;;;;;5040960;27;93768;-53
2023/10/28 01:25:22;;;;;;;5.40;3.80;;;;;;;;;;5040906;28;91906;-52
2023/10/28 01:27:51;;;;;;;8.27;3.83;;;;;;;;;;5041123;28;92159;-52
2023/10/28 01:30:19;;;;;;;5.53;4.27;;;;;;;;;;5040903;27;93981;-52
2023/10/28 01:32:48;;;;;;;4.53;3.27;;;;;;;;;;5059704;27;91401;-52
2023/10/28 01:35:16;;;;;;;4.53;3.77;;;;;;;;;;5061454;27;92172;-52
2023/10/28 01:37:44;;;;;;;4.60;3.57;;;;;;;;;;5061027;27;92018;-52
2023/10/28 01:40:14;;;;;;;5.90;4.07;;;;;;;;;;5059779;27;95090;-53
2023/10/28 01:42:44;;;;;;;7.13;4.30;;;;;;;;;;5059859;27;94680;-53
2023/10/28 01:45:13;;;;;;;6.33;3.43;;;;;;;;;;5059216;27;92014;-53
2023/10/28 01:47:42;;;;;;;4.73;4.13;;;;;;;;;;5044432;27;92203;-53
2023/10/28 01:50:11;;;;;;;4.77;3.33;;;;;;;;;;5060479;27;94377;-52
2023/10/28 01:52:40;;;;;;;7.33;4.00;;;;;;;;;;5056495;27;94009;-52
2023/10/28 01:55:09;;;;;;;4.77;3.30;;;;;;;;;;5051528;27;91999;-52
2023/10/28 01:57:39;;;;;;;4.50;2.97;;;;;;;;;;5050260;27;91345;-52
2023/10/28 02:00:12;;;;;;;7.60;3.07;;;;;;;;;;5058320;27;94180;-53
2023/10/28 02:02:41;;;;;;;5.57;3.23;;;;;;;;;;5049260;27;92707;-51
2023/10/28 02:05:11;;;;;;;4.97;2.73;;;;;;;;;;5060336;27;93037;-53
2023/10/28 02:07:40;;;;;;;4.13;2.50;;;;;;;;;;5060016;27;92086;-52
2023/10/28 02:10:09;;;;;;;9.03;3.00;;;;;;;;;;5059641;27;94163;-53
2023/10/28 02:12:37;;;;;;;5.10;3.50;;;;;;;;;;5059497;27;93760;-52
2023/10/28 02:15:08;;;;;;;5.23;3.33;;;;;;;;;;5061931;27;92068;-51
2023/10/28 02:17:36;;;;;;;3.53;2.93;;;;;;;;;;5060486;27;91986;-52
2023/10/28 02:20:06;;;;;;;3.53;2.80;;;;;;;;;;5059930;27;93115;-53
2023/10/28 02:22:35;;;;;;;3.90;2.80;;;;;;;;;;5059827;27;93960;-53
2023/10/28 02:25:04;;;;;;;4.27;3.10;;;;;;;;;;5060011;27;92010;-53
2023/10/28 02:27:33;;;;;;;3.83;2.20;;;;;;;;;;5056762;27;92398;-53
2023/10/28 02:30:01;;;;;;;4.30;2.80;;;;;;;;;;5058349;27;95026;-53
2023/10/28 02:32:33;;;;;;;5.07;2.60;;;;;;;;;;5058766;27;94381;-52
2023/10/28 02:35:02;;;;;;;2.63;1.83;;;;;;;;;;5060123;27;92081;-53
2023/10/28 02:37:31;;;;;;;2.77;2.00;;;;;;;;;;5059131;27;92242;-54
2023/10/28 02:39:59;;;;;;;3.83;2.73;;;;;;;;;;5056638;27;92706;-52
2023/10/28 02:42:28;;;;;;;3.17;1.83;;;;;;;;;;5059469;27;93763;-53
2023/10/28 02:44:56;;;;;;;3.37;2.73;;;;;;;;;;5057166;27;91922;-53
2023/10/28 02:47:24;;;;;;;8.03;2.60;;;;;;;;;;5059707;27;91324;-53
2023/10/28 02:49:54;;;;;;;3.17;2.50;;;;;;;;;;5056626;27;94144;-53
2023/10/28 02:52:23;;;;;;;6.20;2.90;;;;;;;;;;5058799;27;93574;-53
2023/10/28 02:54:52;;;;;;;3.43;2.53;;;;;;;;;;5058841;27;93014;-54
2023/10/28 02:57:20;;;;;;;3.47;2.53;;;;;;;;;;5058687;27;92275;-53
2023/10/28 02:59:48;;;;;;;3.23;2.43;;;;;;;;;;5059046;27;94124;-53
2023/10/28 03:02:17;;;;;;;3.20;2.67;;;;;;;;;;5058912;27;93875;-52
2023/10/28 03:04:46;;;;;;;3.37;2.47;;;;;;;;;;5059361;27;91990;-52
2023/10/28 03:07:15;;;;;;;2.47;2.27;;;;;;;;;;5055724;27;92100;-51
2023/10/28 03:09:44;;;;;;;4.47;2.67;;;;;;;;;;5058313;27;93959;-52
2023/10/28 03:12:15;;;;;;;5.33;2.20;;;;;;;;;;5058981;27;93790;-51
2023/10/28 03:14:43;;;;;;;5.17;2.87;;;;;;;;;;5059249;27;92118;-53
2023/10/28 03:17:12;;;;;;;3.47;2.03;;;;;;;;;;5058585;27;92268;-52
2023/10/28 03:19:40;;;;;;;2.40;1.83;;;;;;;;;;5057683;27;95008;-51
2023/10/28 03:22:09;;;;;;;2.77;1.93;;;;;;;;;;5057980;27;94940;-53
2023/10/28 03:24:39;;;;;;;3.80;2.50;;;;;;;;;;5059177;27;91868;-53
2023/10/28 03:27:07;;;;;;;2.27;2.07;;;;;;;;;;5058340;27;92075;-52
2023/10/28 03:29:35;;;;;;;1.83;1.73;;;;;;;;;;5056136;27;94220;-52
2023/10/28 03:32:04;;;;;;;4.53;2.57;;;;;;;;;;5057664;27;93802;-52
2023/10/28 03:34:32;;;;;;;2.93;1.93;;;;;;;;;;5058450;27;92065;-51
2023/10/28 03:37:00;;;;;;;2.23;1.50;;;;;;;;;;5058910;27;91347;-52
2023/10/28 03:39:29;;;;;;;4.27;2.40;;;;;;;;;;5055072;27;94123;-52
2023/10/28 03:41:58;;;;;;;4.60;2.70;;;;;;;;;;5058065;27;93768;-53
2023/10/28 03:44:27;;;;;;;4.23;2.20;;;;;;;;;;5058202;27;93810;-52
2023/10/28 03:46:56;;;;;;;3.73;1.90;;;;;;;;;;5055649;27;92625;-52
2023/10/28 03:49:25;;;;;;;6.07;2.53;;;;;;;;;;5057426;27;93073;-52
2023/10/28 03:51:53;;;;;;;4.27;2.43;;;;;;;;;;5055235;27;92751;-51
2023/10/28 03:54:22;;;;;;;4.57;2.50;;;;;;;;;;5058712;27;92148;-52
2023/10/28 03:56:50;;;;;;;5.07;2.20;;;;;;;;;;5058083;27;92133;-51
2023/10/28 03:59:21;;;;;;;3.80;2.83;;;;;;;;;;5057813;27;94149;-52
2023/10/28 04:01:49;;;;;;;3.77;2.40;;;;;;;;;;5058032;27;92741;-51
2023/10/28 04:04:18;;;;;;;3.80;3.00;;;;;;;;;;5057855;27;91840;-52
2023/10/28 04:06:46;;;;;;;3.40;2.70;;;;;;;;;;5056539;27;92098;-53
2023/10/28 04:09:15;;;;;;;4.97;2.90;;;;;;;;;;5055684;27;95024;-52
2023/10/28 04:11:44;;;;;;;3.97;2.33;;;;;;;;;;5056676;27;93173;-51
2023/10/28 04:14:13;;;;;;;3.90;2.60;;;;;;;;;;5058086;27;91968;-51
2023/10/28 04:16:43;;;;;;;4.03;2.73;;;;;;;;;;5058033;27;92209;-53
2023/10/28 04:19:11;;;;;;;7.50;2.73;;;;;;;;;;5057558;27;94128;-53
2023/10/28 04:21:39;;;;;;;3.97;3.27;;;;;;;;;;5057694;27;93800;-51
2023/10/28 04:24:09;;;;;;;4.63;2.73;;;;;;;;;;5058159;27;92065;-51
2023/10/28 04:26:38;;;;;;;5.47;3.30;;;;;;;;;;5058557;27;91403;-53
2023/10/28 04:29:06;;;;;;;3.07;2.73;;;;;;;;;;5056561;27;94221;-52
2023/10/28 04:31:35;;;;;;;3.83;2.70;;;;;;;;;;5054826;27;93886;-52
2023/10/28 04:34:05;;;;;;;5.53;3.43;;;;;;;;;;5058189;27;93051;-52
2023/10/28 04:36:34;;;;;;;4.67;3.23;;;;;;;;;;5061575;27;92040;-52
2023/10/28 04:39:02;;;;;;;3.17;2.87;;;;;;;;;;5064151;27;94086;-53
2023/10/28 04:41:31;;;;;;;6.00;3.30;;;;;;;;;;5063739;27;93872;-53
2023/10/28 04:44:01;;;;;;;3.80;2.83;;;;;;;;;;5064646;27;92017;-52
2023/10/28 04:46:30;;;;;;;5.50;3.27;;;;;;;;;;5063302;27;92120;-52
2023/10/28 04:48:59;;;;;;;5.53;3.53;;;;;;;;;;5063726;27;94095;-52
2023/10/28 04:51:28;;;;;;;6.30;3.20;;;;;;;;;;5063991;27;93554;-53
2023/10/28 04:53:57;;;;;;;6.30;3.30;;;;;;;;;;5063646;27;93004;-53
2023/10/28 04:56:25;;;;;;;4.93;3.70;;;;;;;;;;5062813;27;92141;-53
2023/10/28 04:58:54;;;;;;;5.17;3.17;;;;;;;;;;5060764;27;95028;-52
2023/10/28 05:01:23;;;;;;;8.97;3.83;;;;;;;;;;5063094;27;94838;-51
2023/10/28 05:03:52;;;;;;;5.37;3.47;;;;;;;;;;5063595;27;92027;-53
2023/10/28 05:06:21;;;;;;;4.33;3.50;;;;;;;;;;5063446;27;92106;-52
2023/10/28 05:08:50;;;;;;;7.63;3.60;;;;;;;;;;5063624;27;94375;-52
2023/10/28 05:11:19;;;;;;;5.77;4.00;;;;;;;;;;5063183;27;93636;-52
2023/10/28 05:13:47;;;;;;;4.80;3.50;;;;;;;;;;5063629;27;91942;-52
2023/10/28 05:16:16;;;;;;;7.37;4.60;;;;;;;;;;5063507;27;91365;-52
2023/10/28 05:18:45;;;;;;;5.90;4.00;;;;;;;;;;5063213;27;94227;-52
2023/10/28 05:21:14;;;;;;;8.30;3.90;;;;;;;;;;5060019;27;92781;-52
2023/10/28 05:23:42;;;;;;;5.70;3.73;;;;;;;;;;5063086;27;94306;-52
2023/10/28 05:26:12;;;;;;;11.80;4.13;;;;;;;;;;5062897;27;92368;-52
2023/10/28 05:28:41;;;;;;;5.17;3.77;;;;;;;;;;5062675;27;94213;-51
2023/10/28 05:31:10;;;;;;;5.63;4.23;;;;;;;;;;5062433;27;93627;-52
2023/10/28 05:33:39;;;;;;;5.37;4.03;;;;;;;;;;5063250;27;92236;-51
2023/10/28 05:36:09;;;;;;;7.13;4.67;;;;;;;;;;5063302;27;92157;-52
2023/10/28 05:38:37;;;;;;;5.97;4.50;;;;;;;;;;5064792;27;94353;-52
2023/10/28 05:41:05;;;;;;;4.97;3.37;;;;;;;;;;5063365;27;93920;-52
2023/10/28 05:43:35;;;;;;;5.30;3.87;;;;;;;;;;5060765;27;92015;-53
2023/10/28 05:46:04;;;;;;;8.43;4.27;;;;;;;;;;5060401;27;92298;-52
2023/10/28 05:48:33;;;;;;;7.67;4.40;;;;;;;;;;5058678;27;95050;-51
2023/10/28 05:51:02;;;;;;;5.53;3.83;;;;;;;;;;5059162;27;94679;-53
2023/10/28 05:53:31;;;;;;;6.97;3.93;;;;;;;;;;5059698;27;91924;-52
2023/10/28 05:55:59;;;;;;;6.10;4.33;;;;;;;;;;5059349;27;92077;-52
2023/10/28 05:58:27;;;;;;;5.70;4.00;;;;;;;;;;5059024;27;94190;-52
2023/10/28 06:00:59;;;;;;;6.43;4.57;;;;;;;;;;5056604;27;93841;-53
2023/10/28 06:03:28;;;;;;;6.60;3.73;;;;;;;;;;5059948;27;92006;-53
2023/10/28 06:05:56;;;;;;;4.10;3.67;;;;;;;;;;5059857;27;91329;-52
2023/10/28 06:08:25;;;;;;;6.07;4.13;;;;;;;;;;5058261;27;94130;-51
2023/10/28 06:10:53;;;;;;;6.83;4.93;;;;;;;;;;5057296;27;93721;-52
2023/10/28 06:13:22;;;;;;;4.87;3.87;;;;;;;;;;5058702;27;93083;-56
2023/10/28 06:15:50;;;;;;;7.27;4.30;;;;;;;;;;5058694;27;92124;-57
2023/10/28 06:18:20;;;;;;;8.10;4.50;;;;;;;;;;5058935;27;94331;-53
2023/10/28 06:20:49;;;;;;;4.43;3.47;;;;;;;;;;5058666;27;92703;-54
2023/10/28 06:23:17;;;;;;;6.23;4.50;;;;;;;;;;5057817;27;92063;-56
2023/10/28 06:25:45;;;;;;;9.97;4.47;;;;;;;;;;5052533;27;92392;-56
2023/10/28 06:28:14;;;;;;;8.03;4.93;;;;;;;;;;5052965;27;93904;-63
2023/10/28 06:30:49;;;;;;;7.27;4.30;;;;;;;;;;5059100;27;92798;-59
2023/10/28 06:33:17;;;;;;;7.33;5.13;;;;;;;;;;5055624;27;92107;-59
2023/10/28 06:35:47;;;;;;;7.77;4.50;;;;;;;;;;5058793;27;92073;-59
2023/10/28 06:38:17;;;;;;;7.90;4.27;;;;;;;;;;5057238;27;95114;-59
2023/10/28 06:40:47;;;;;;;5.83;3.83;;;;;;;;;;5057403;27;94737;-59
2023/10/28 06:43:15;;;;;;;6.73;4.37;;;;;;;;;;5058233;27;92002;-58
2023/10/28 06:45:44;;;;;;;7.33;4.20;;;;;;;;;;5058492;27;92132;-59
2023/10/28 06:48:12;;;;;;;8.33;4.23;;;;;;;;;;5057727;27;92864;-59
2023/10/28 06:50:41;;;;;;;6.93;4.80;;;;;;;;;;5057472;27;93721;-59
2023/10/28 06:53:10;;;;;;;8.17;4.37;;;;;;;;;;5055856;27;91869;-59
2023/10/28 06:55:39;;;;;;;7.57;3.80;;;;;;;;;;5058597;27;91319;-59
2023/10/28 06:58:07;;;;;;;6.77;4.17;;;;;;;;;;5056739;27;94104;-59
2023/10/28 07:00:37;;;;;;;7.63;3.90;;;;;;;;;;5054205;27;96288;-59
2023/10/28 07:03:05;;;;;;;7.53;3.87;;;;;;;;;;5055083;27;93039;-59
2023/10/28 07:05:34;;;;;;;8.97;4.33;;;;;;;;;;5055885;27;93439;-56
2023/10/28 07:08:03;;;;;;;4.70;3.50;;;;;;;;;;5055938;27;94088;-56
2023/10/28 07:10:33;;;;;;;7.00;4.00;;;;;;;;;;5055817;27;93950;-56
2023/10/28 07:13:01;;;;;;;10.33;4.00;;;;;;;;;;5056340;27;92545;-55
2023/10/28 07:15:30;;;;;;;5.90;3.97;;;;;;;;;;5055943;27;92347;-56
2023/10/28 07:17:58;;;;;;;6.23;3.90;;;;;;;;;;5056191;27;93724;-56
2023/10/28 07:20:28;;;;;;;5.00;3.33;;;;;;;;;;5056105;27;92695;-56
2023/10/28 07:22:56;;;;;;;5.40;3.83;;;;;;;;;;5053677;27;92502;-56
2023/10/28 07:25:25;;;;;;;5.43;3.53;;;;;;;;;;5056160;27;92507;-56
2023/10/28 07:27:54;;;;;;;7.73;3.37;;;;;;;;;;5054775;27;95058;-56
2023/10/28 07:30:23;;;;;;;6.47;4.50;;;;;;;;;;5055634;27;94814;-56
2023/10/28 07:32:52;;;;;;;6.97;4.37;;;;;;;;;;5054647;27;92049;-56
2023/10/28 07:35:20;;;;;;;4.80;3.70;;;;;;;;;;5056035;27;92130;-59
2023/10/28 07:37:48;;;;;;;5.90;3.33;;;;;;;;;;5055112;27;94190;-55
2023/10/28 07:40:17;;;;;;;6.30;3.13;;;;;;;;;;5049042;27;94103;-53
2023/10/28 07:42:45;;;;;;;5.47;3.73;;;;;;;;;;5056003;27;92530;-55
2023/10/28 07:45:15;;;;;;;5.80;3.67;;;;;;;;;;5055882;27;92085;-56
2023/10/28 07:47:44;;;;;;;6.20;3.77;;;;;;;;;;5048268;27;93897;-55
2023/10/28 07:50:12;;;;;;;5.43;3.40;;;;;;;;;;5045052;27;93826;-55
2023/10/28 07:52:41;;;;;;;8.73;4.03;;;;;;;;;;5054717;27;93031;-55
2023/10/28 07:55:10;;;;;;;4.97;3.13;;;;;;;;;;5054520;27;92568;-55
2023/10/28 07:57:39;;;;;;;6.27;3.00;;;;;;;;;;5053473;27;94187;-55
2023/10/28 08:00:11;;;;;;;6.13;3.70;;;;;;;;;;5054590;27;93849;-55
2023/10/28 08:02:44;;;;;;;6.63;3.50;;;;;;;;;;5054662;27;93432;-55
2023/10/28 08:05:13;;;;;;;6.33;3.03;;;;;;;;;;5055180;27;92574;-55
2023/10/28 08:07:41;;;;;;;9.47;3.73;;;;;;;;;;5054008;27;93005;-54
2023/10/28 08:10:10;;;;;;;7.13;3.30;;;;;;;;;;5053137;27;92710;-55
2023/10/28 08:12:39;;;;;;;4.13;2.63;;;;;;;;;;5055224;27;92199;-55
2023/10/28 08:15:08;;;;;;;7.67;3.57;;;;;;;;;;5055131;27;92761;-54
2023/10/28 08:17:37;;;;;;;5.63;3.20;;;;;;;;;;5054840;27;95174;-55
2023/10/28 08:20:08;;;;;;;8.50;3.40;;;;;;;;;;5051329;27;94837;-55
2023/10/28 08:22:37;;;;;;;5.03;3.57;;;;;;;;;;5054851;27;92146;-58
2023/10/28 08:25:06;;;;;;;5.17;2.57;;;;;;;;;;5051866;27;93450;-55
2023/10/28 08:27:34;;;;;;;3.73;2.43;;;;;;;;;;5054937;27;93241;-55
2023/10/28 08:30:04;;;;;;;4.87;3.03;;;;;;;;;;5054766;27;93666;-55
2023/10/28 08:32:33;;;;;;;7.30;2.73;;;;;;;;;;5055360;27;92177;-55
2023/10/28 08:35:03;;;;;;;6.07;3.17;;;;;;;;;;5054395;27;91972;-55
2023/10/28 08:37:33;;;;;;;4.00;2.80;;;;;;;;;;5054133;27;96001;-55
2023/10/28 08:40:01;;;;;;;3.00;2.63;;;;;;;;;;5053835;27;93789;-55
2023/10/28 08:42:31;;;;;;;3.20;2.40;;;;;;;;;;5054434;27;92984;-56
2023/10/28 08:45:01;;;;;;;3.77;2.57;;;;;;;;;;5054794;27;92563;-55
2023/10/28 08:47:29;;;;;;;3.37;2.63;;;;;;;;;;5054883;27;93304;-55
2023/10/28 08:49:58;;;;;;;3.27;2.27;;;;;;;;;;5055056;27;93830;-55
2023/10/28 08:52:26;;;;;;;4.83;2.70;;;;;;;;;;5055513;27;92024;-55
2023/10/28 08:54:59;;;;;;;5.40;1.97;;;;;;;;;;5055061;27;91990;-55
2023/10/28 08:57:28;;;;;;;4.33;2.73;;;;;;;;;;5054988;27;93973;-55
2023/10/28 08:59:56;;;;;;;3.67;2.17;;;;;;;;;;5054912;27;94098;-56
2023/10/28 09:02:25;;;;;;;4.03;2.57;;;;;;;;;;5055750;27;92371;-55
2023/10/28 09:04:54;;;;;;;3.33;2.30;;;;;;;;;;5055111;27;92616;-55
2023/10/28 09:07:22;;;;;;;4.20;2.00;;;;;;;;;;5054247;27;95110;-55
2023/10/28 09:10:00;;;;;;;3.33;2.23;;;;;;;;;;5054383;27;94893;-55
2023/10/28 09:12:28;;;;;;;5.20;2.73;;;;;;;;;;5055040;27;92132;-55
2023/10/28 09:14:57;;;;;;;4.40;1.80;;;;;;;;;;5054473;27;92072;-55
2023/10/28 09:17:25;;;;;;;5.97;2.50;;;;;;;;;;5054549;27;93683;-55
2023/10/28 09:19:54;;;;;;;3.17;2.03;;;;;;;;;;5054938;27;93778;-55
2023/10/28 09:22:22;;;;;;;3.13;2.33;;;;;;;;;;5057937;27;92295;-55
2023/10/28 09:24:52;;;;;;;4.03;2.13;;;;;;;;;;5058644;27;91968;-55
2023/10/28 09:27:22;;;;;;;7.07;2.70;;;;;;;;;;5057988;27;94212;-55
2023/10/28 09:29:50;;;;;;;5.33;2.33;;;;;;;;;;5057943;27;93936;-55
2023/10/28 09:32:19;;;;;;;3.83;2.10;;;;;;;;;;5057106;27;93636;-55
2023/10/28 09:34:48;;;;;;;3.23;2.03;;;;;;;;;;5057842;27;92242;-55
2023/10/28 09:37:18;;;;;;;2.57;2.30;;;;;;;;;;5056052;27;93988;-55
2023/10/28 09:39:47;;;;;;;3.87;1.80;;;;;;;;;;5056530;27;93651;-55
2023/10/28 09:42:16;;;;;;;2.80;1.80;;;;;;;;;;5058366;27;92042;-55
2023/10/28 09:44:46;;;;;;;3.53;1.93;;;;;;;;;;5057868;27;92147;-55
2023/10/28 09:47:16;;;;;;;4.07;2.20;;;;;;;;;;5057650;27;94153;-55
2023/10/28 09:49:45;;;;;;;3.53;1.60;;;;;;;;;;5057823;27;94901;-55
2023/10/28 09:52:13;;;;;;;3.83;2.30;;;;;;;;;;5057728;27;91972;-55
2023/10/28 09:54:42;;;;;;;3.00;2.13;;;;;;;;;;5056152;27;92065;-55
2023/10/28 09:57:11;;;;;;;3.30;2.07;;;;;;;;;;5051665;27;95147;-55
2023/10/28 09:59:39;;;;;;;2.63;2.30;;;;;;;;;;5062342;27;94712;-55
2023/10/28 10:02:23;;;;;;;2.37;1.70;;;;;;;;;;5054313;27;92100;-55
2023/10/28 10:04:53;;;;;;;4.50;1.80;;;;;;;;;;5053204;27;92770;-55
2023/10/28 10:07:22;;;;;;;2.83;1.80;;;;;;;;;;5058961;27;93071;-55
2023/10/28 10:09:50;;;;;;;2.83;2.20;;;;;;;;;;5059541;27;93560;-55
2023/10/28 10:12:18;;;;;;;5.30;2.73;;;;;;;;;;5055941;27;93817;-56
2023/10/28 10:14:47;;;;;;;3.30;1.90;;;;;;;;;;5060279;27;91329;-56
2023/10/28 10:17:22;;;;;;;2.00;1.87;;;;;;;;;;5060141;27;94349;-50
2023/10/28 10:19:52;;;;;;;2.17;1.97;;;;;;;;;;5060210;27;93883;-52
2023/10/28 10:22:28;;;;;;;3.00;1.90;;;;;;;;;;5060348;27;92690;-50
2023/10/28 10:24:57;;;;;;;3.73;2.00;;;;;;;;;;5060583;27;91884;-56
2023/10/28 10:27:35;;;;;;;2.97;1.63;;;;;;;;;;5055007;27;94303;-51
2023/10/28 10:30:07;;;;;;;2.07;1.70;;;;;;;;;;5058502;27;93840;-52
2023/10/28 10:32:43;;;;;;;2.17;1.70;;;;;;;;;;5057989;27;92140;-53
2023/10/28 10:35:13;;;;;;;2.43;1.90;;;;;;;;;;5057745;27;91969;-52
2023/10/28 10:37:42;;;;;;;2.40;1.67;;;;;;;;;;5059538;27;93252;-51
2023/10/28 10:40:12;;;;;;;2.37;1.70;;;;;;;;;;5060274;27;92731;-52
2023/10/28 10:42:40;;;;;;;1.87;1.43;;;;;;;;;;5055492;27;92172;-52
2023/10/28 10:45:09;;;;;;;2.70;1.90;;;;;;;;;;5059020;27;92064;-52
2023/10/28 10:47:37;;;;;;;4.87;2.30;;;;;;;;;;5057569;27;95053;-52
2023/10/28 10:50:08;;;;;;;2.40;1.50;;;;;;;;;;5053833;27;94812;-52
2023/10/28 10:52:37;;;;;;;2.37;1.60;;;;;;;;;;5057883;27;92508;-53
2023/10/28 10:55:06;;;;;;;2.53;1.80;;;;;;;;;;5047469;27;92206;-52
2023/10/28 10:57:34;;;;;;;1.57;1.43;;;;;;;;;;5048697;27;94147;-52
2023/10/28 11:00:04;;;;;;;1.33;1.23;;;;;;;;;;5048473;27;93866;-52
2023/10/28 11:02:32;;;;;;;2.47;1.77;;;;;;;;;;5041883;27;91891;-52
2023/10/28 11:05:01;;;;;;;3.53;1.40;;;;;;;;;;5048903;27;91310;-52
2023/10/28 11:07:31;;;;;;;2.47;1.37;;;;;;;;;;5053094;27;93889;-52
2023/10/28 11:09:59;;;;;;;1.57;1.47;;;;;;;;;;5051131;27;93848;-52
2023/10/28 11:12:28;;;;;;;1.43;1.30;;;;;;;;;;5048045;27;93506;-53
2023/10/28 11:14:57;;;;;;;2.50;1.43;;;;;;;;;;5043481;27;92120;-51
2023/10/28 11:17:25;;;;;;;4.63;1.17;;;;;;;;;;5055212;27;93069;-52
2023/10/28 11:19:54;;;;;;;3.97;1.63;;;;;;;;;;5052589;27;93978;-52
2023/10/28 11:22:23;;;;;;;2.20;1.10;;;;;;;;;;5050502;27;91851;-52
2023/10/28 11:24:56;;;;;;;4.53;1.40;;;;;;;;;;5057946;27;92460;-52
2023/10/28 11:27:26;;;;;;;1.47;1.17;;;;;;;;;;5057209;27;94153;-53
2023/10/28 11:29:56;;;;;;;2.00;1.10;;;;;;;;;;5047950;27;93579;-52
2023/10/28 11:32:26;;;;;;;1.60;0.90;;;;;;;;;;5056296;27;92136;-52
2023/10/28 11:34:54;;;;;;;4.37;1.53;;;;;;;;;;5058836;27;92097;-53
2023/10/28 11:37:22;;;;;;;1.30;0.93;;;;;;;;;;5065395;27;95234;-52
2023/10/28 11:39:51;;;;;;;2.50;1.23;;;;;;;;;;5049205;27;93626;-53
2023/10/28 11:42:21;;;;;;;2.07;1.37;;;;;;;;;;5056571;27;92174;-52
2023/10/28 11:44:50;;;;;;;1.40;1.00;;;;;;;;;;5053330;27;92210;-52
2023/10/28 11:47:19;;;;;;;3.23;1.07;;;;;;;;;;5058191;27;93935;-52
2023/10/28 11:49:49;;;;;;;1.07;0.90;;;;;;;;;;5052166;27;93904;-55
2023/10/28 11:52:17;;;;;;;2.90;1.37;;;;;;;;;;5047400;27;92661;-53
2023/10/28 11:54:46;;;;;;;2.83;1.30;;;;;;;;;;5055123;27;91624;-54
2023/10/28 11:57:14;;;;;;;1.67;1.40;;;;;;;;;;5053730;27;94173;-55
2023/10/28 11:59:44;;;;;;;2.43;1.83;;;;;;;;;;5055385;27;93800;-54
2023/10/28 12:02:13;;;;;;;3.70;1.40;;;;;;;;;;5046311;27;93977;-54
2023/10/28 12:04:42;;;;;;;3.80;1.60;;;;;;;;;;5053821;27;94771;-55
2023/10/28 12:07:11;;;;;;;2.17;1.67;;;;;;;;;;5055059;27;93774;-54
2023/10/28 12:09:40;;;;;;;2.67;1.27;;;;;;;;;;5050139;27;93699;-53
2023/10/28 12:12:09;;;;;;;4.83;1.60;;;;;;;;;;5045089;27;92120;-55
2023/10/28 12:14:37;;;;;;;5.03;1.90;;;;;;;;;;5023087;27;93144;-55
2023/10/28 12:17:11;;;;;;;3.97;1.70;;;;;;;;;;5019693;27;95802;-54
2023/10/28 12:19:40;;;;;;;2.27;2.03;;;;;;;;;;5017372;27;94192;-54
2023/10/28 12:22:09;;;;;;;1.93;1.73;;;;;;;;;;5028052;27;93781;-54
2023/10/28 12:24:38;;;;;;;2.67;1.50;;;;;;;;;;5018936;27;96470;-56
2023/10/28 12:27:06;;;;;;;3.27;1.60;;;;;;;;;;5019575;27;96241;-55
2023/10/28 12:29:35;;;;;;;1.30;1.20;;;;;;;;;;5039851;27;93672;-54
2023/10/28 12:32:03;;;;;;;1.50;1.27;;;;;;;;;;5040994;27;94453;-55
2023/10/28 12:34:34;;;;;;;4.40;1.60;;;;;;;;;;5046467;27;93426;-53
2023/10/28 12:37:02;;;;;;;3.83;1.67;;;;;;;;;;5035944;27;94507;-52
2023/10/28 12:39:31;;;;;;;1.90;1.17;;;;;;;;;;5039225;27;95519;-53
2023/10/28 12:42:02;;;;;;;1.77;1.30;;;;;;;;;;5015417;27;94702;-53
2023/10/28 12:44:30;;;;;;;3.00;1.30;;;;;;;;;;5021569;27;94950;-53
2023/10/28 12:46:59;;;;;;;1.73;1.20;;;;;;;;;;5039761;27;93754;-53
2023/10/28 12:49:27;;;;;;;4.53;1.83;;;;;;;;;;5050427;27;93777;-52
2023/10/28 12:51:57;;;;;;;3.07;1.30;;;;;;;;;;5054649;27;92979;-53
2023/10/28 12:54:27;;;;;;;1.80;1.23;;;;;;;;;;5045012;27;93233;-53
2023/10/28 12:56:55;;;;;;;1.00;0.83;;;;;;;;;;5050842;27;94139;-53
2023/10/28 12:59:24;;;;;;;3.87;1.30;;;;;;;;;;5045319;27;95430;-53
2023/10/28 13:01:52;;;;;;;5.43;1.40;;;;;;;;;;5048465;27;92171;-53
2023/10/28 13:04:22;;;;;;;2.37;1.37;;;;;;;;;;5054529;27;92727;-53
2023/10/28 13:06:52;;;;;;;2.00;1.10;;;;;;;;;;5053170;27;93395;-53
2023/10/28 13:09:23;;;;;;;2.40;1.00;;;;;;;;;;5060341;27;93831;-53
2023/10/28 13:11:51;;;;;;;1.90;1.30;;;;;;;;;;5056517;27;92122;-52
2023/10/28 13:14:20;;;;;;;1.83;1.00;;;;;;;;;;5054517;27;92098;-52
2023/10/28 13:16:48;;;;;;;1.83;1.00;;;;;;;;;;5059890;27;95161;-53
2023/10/28 13:19:19;;;;;;;1.67;1.30;;;;;;;;;;5060527;27;94758;-53
2023/10/28 13:21:49;;;;;;;4.20;1.30;;;;;;;;;;5060756;27;91939;-53
2023/10/28 13:24:18;;;;;;;3.57;1.00;;;;;;;;;;5052131;27;93664;-53
2023/10/28 13:26:47;;;;;;;1.80;1.20;;;;;;;;;;5057389;27;94096;-52
2023/10/28 13:29:17;;;;;;;2.97;1.10;;;;;;;;;;5060756;27;92717;-53
2023/10/28 13:31:46;;;;;;;1.90;1.23;;;;;;;;;;5060869;27;91869;-52
2023/10/28 13:34:14;;;;;;;3.47;1.20;;;;;;;;;;5061364;27;91530;-52
2023/10/28 13:36:43;;;;;;;2.47;1.10;;;;;;;;;;5060773;27;92879;-52
2023/10/28 13:39:12;;;;;;;3.40;1.63;;;;;;;;;;5060846;27;92742;-53
2023/10/28 13:41:41;;;;;;;3.27;1.20;;;;;;;;;;5060930;27;92909;-52
2023/10/28 13:44:11;;;;;;;4.93;1.23;;;;;;;;;;5060889;27;92038;-53
2023/10/28 13:46:41;;;;;;;3.77;1.20;;;;;;;;;;5060842;27;94128;-52
2023/10/28 13:49:09;;;;;;;4.57;1.10;;;;;;;;;;5060545;27;93803;-52
2023/10/28 13:51:38;;;;;;;2.77;1.03;;;;;;;;;;5060768;27;91899;-51
2023/10/28 13:54:09;;;;;;;2.90;1.60;;;;;;;;;;5060964;27;91938;-52
2023/10/28 13:56:38;;;;;;;3.03;1.37;;;;;;;;;;5060425;27;94173;-52
2023/10/28 13:59:06;;;;;;;6.60;1.03;;;;;;;;;;5060599;27;93744;-52
2023/10/28 14:01:36;;;;;;;1.13;0.53;;;;;;;;;;5060859;27;91786;-51
2023/10/28 14:04:07;;;;;;;1.03;1.00;;;;;;;;;;5060427;27;92129;-53
2023/10/28 14:06:36;;;;;;;2.30;1.20;;;;;;;;;;5059469;27;94279;-53
2023/10/28 14:09:04;;;;;;;2.10;1.23;;;;;;;;;;5059465;27;93620;-52
2023/10/28 14:11:33;;;;;;;2.30;1.00;;;;;;;;;;5060652;27;91994;-52
2023/10/28 14:14:01;;;;;;;1.70;1.13;;;;;;;;;;5060155;27;92161;-52
2023/10/28 14:16:30;;;;;;;1.33;1.03;;;;;;;;;;5059956;27;94131;-52
2023/10/28 14:19:02;;;;;;;2.90;1.10;;;;;;;;;;5060416;27;94015;-53
2023/10/28 14:21:30;;;;;;;2.83;1.30;;;;;;;;;;5061029;27;91870;-52
2023/10/28 14:23:58;;;;;;;1.00;0.80;;;;;;;;;;5060778;27;91328;-52
2023/10/28 14:26:27;;;;;;;1.83;1.00;;;;;;;;;;5059840;27;94426;-51
2023/10/28 14:28:55;;;;;;;0.70;0.70;;;;;;;;;;5059552;27;93969;-52
2023/10/28 14:31:24;;;;;;;1.70;0.80;;;;;;;;;;5059747;27;92967;-52
2023/10/28 14:33:53;;;;;;;2.07;1.20;;;;;;;;;;5060117;27;91849;-52
2023/10/28 14:36:23;;;;;;;1.63;1.07;;;;;;;;;;5060088;27;93275;-52
2023/10/28 14:38:51;;;;;;;1.93;0.80;;;;;;;;;;5060051;27;93880;-53
2023/10/28 14:41:20;;;;;;;0.70;0.70;;;;;;;;;;5059794;27;91795;-52
2023/10/28 14:43:48;;;;;;;2.93;0.63;;;;;;;;;;5060077;27;92024;-52
2023/10/28 14:46:16;;;;;;;2.83;0.60;;;;;;;;;;5059634;27;93964;-52
2023/10/28 14:48:45;;;;;;;1.03;0.70;;;;;;;;;;5060201;27;93009;-52
2023/10/28 14:51:13;;;;;;;2.07;1.13;;;;;;;;;;5060243;27;91875;-52
2023/10/28 14:53:44;;;;;;;1.37;0.70;;;;;;;;;;5059725;27;91978;-53